createdAt,value
2023-03-26T00:01:23.713Z,64.77
2023-03-26T00:03:27.747Z,65.44
2023-03-26T00:05:32.147Z,65.72
2023-03-26T00:07:34.987Z,66.05
2023-03-26T00:09:39.336Z,66.35
2023-03-26T00:11:43.022Z,66.29
2023-03-26T00:13:46.793Z,66.85
2023-03-26T00:15:49.612Z,66.36
2023-03-26T00:17:54.133Z,66.75
2023-03-26T00:19:59.673Z,67.06
2023-03-26T00:22:03.661Z,67.32
2023-03-26T00:24:10.129Z,67.52
2023-03-26T00:26:16.329Z,68.18
2023-03-26T00:28:22.256Z,67.88
2023-03-26T00:30:25.308Z,68.39
2023-03-26T00:32:29.629Z,67.88
2023-03-26T00:34:34.375Z,67.68
2023-03-26T00:36:37.392Z,67.23
2023-03-26T00:38:40.274Z,67.42
2023-03-26T00:40:45.570Z,67.39
2023-03-26T00:42:49.733Z,67.39
2023-03-26T00:44:54.925Z,67.33
2023-03-26T00:46:57.753Z,66.91
2023-03-26T00:49:01.890Z,66.89
2023-03-26T00:51:05.800Z,66.56
2023-03-26T00:53:12.012Z,66.76
2023-03-26T00:55:15.995Z,66.67
2023-03-26T00:57:34.532Z,66.67
2023-03-26T00:59:40.442Z,66.14
2023-03-26T01:01:44.856Z,65.91
2023-03-26T01:04:04.862Z,66.16
2023-03-26T01:06:13.655Z,66.44
2023-03-26T01:08:25.986Z,66.16
2023-03-26T01:10:29.996Z,66.25
2023-03-26T01:12:33.015Z,66.43
2023-03-26T01:14:36.178Z,66.07
2023-03-26T01:16:44.918Z,66.36
2023-03-26T01:18:49.127Z,66.57
2023-03-26T01:20:58.489Z,66.87
2023-03-26T01:23:06.200Z,67.22
2023-03-26T01:25:10.601Z,67.13
2023-03-26T01:27:24.210Z,66.90
2023-03-26T01:29:34.184Z,67.09
2023-03-26T01:31:46.284Z,66.58
2023-03-26T01:33:53.252Z,66.72
2023-03-26T01:36:02.451Z,66.34
2023-03-26T01:38:18.503Z,66.62
2023-03-26T01:40:28.019Z,66.23
2023-03-26T01:42:37.171Z,65.98
2023-03-26T01:44:46.607Z,66.48
2023-03-26T01:46:50.902Z,66.24
2023-03-26T01:48:53.909Z,66.03
2023-03-26T01:50:58.780Z,66.45
2023-03-26T01:53:01.671Z,66.04
2023-03-26T01:55:06.444Z,66.21
2023-03-26T01:57:18.643Z,65.79
2023-03-26T01:59:46.343Z,65.70
2023-03-26T02:01:59.159Z,65.52
2023-03-26T02:04:12.260Z,65.57
2023-03-26T02:06:21.386Z,65.60
2023-03-26T02:08:35.583Z,65.68
2023-03-26T02:10:44.088Z,65.24
2023-03-26T02:12:48.594Z,65.21
2023-03-26T02:14:52.962Z,64.86
2023-03-26T02:16:57.084Z,65.39
2023-03-26T02:19:00.371Z,64.78
2023-03-26T02:21:05.316Z,64.62
2023-03-26T02:23:08.765Z,64.74
2023-03-26T02:25:13.918Z,64.61
2023-03-26T02:27:18.401Z,64.38
2023-03-26T02:29:22.770Z,64.24
2023-03-26T02:31:27.212Z,64.27
2023-03-26T02:33:31.155Z,64.35
2023-03-26T02:35:34.388Z,64.48
2023-03-26T02:37:38.961Z,64.29
2023-03-26T02:39:49.273Z,64.56
2023-03-26T02:42:01.474Z,64.58
2023-03-26T02:44:06.392Z,64.58
2023-03-26T02:46:29.086Z,64.83
2023-03-26T02:48:44.200Z,64.71
2023-03-26T02:50:54.594Z,64.65
2023-03-26T02:53:16.254Z,64.63
2023-03-26T02:55:23.421Z,64.92
2023-03-26T02:57:29.078Z,65.30
2023-03-26T02:59:31.825Z,65.06
2023-03-26T03:01:56.134Z,65.23
2023-03-26T03:04:01.384Z,64.83
2023-03-26T03:06:11.214Z,65.30
2023-03-26T03:08:19.338Z,64.98
2023-03-26T03:10:37.744Z,65.32
2023-03-26T03:12:45.667Z,64.90
2023-03-26T03:14:48.484Z,65.61
2023-03-26T03:16:51.572Z,64.85
2023-03-26T03:18:57.833Z,65.43
2023-03-26T03:21:07.369Z,65.15
2023-03-26T03:23:10.160Z,64.73
2023-03-26T03:25:17.405Z,65.23
2023-03-26T03:27:23.782Z,64.85
2023-03-26T03:29:33.545Z,64.78
2023-03-26T03:31:56.475Z,64.65
2023-03-26T03:34:21.667Z,64.53
2023-03-26T03:36:30.304Z,64.82
2023-03-26T03:38:40.241Z,65.30
2023-03-26T03:40:44.783Z,65.25
2023-03-26T03:42:47.996Z,65.00
2023-03-26T03:44:58.031Z,64.83
2023-03-26T03:47:33.028Z,64.83
2023-03-26T03:49:37.329Z,65.04
2023-03-26T03:51:41.009Z,65.22
2023-03-26T03:53:56.533Z,64.90
2023-03-26T03:56:29.081Z,65.46
2023-03-26T03:58:58.208Z,65.06
2023-03-26T04:01:06.972Z,65.42
2023-03-26T04:03:33.121Z,64.98
2023-03-26T04:05:38.617Z,65.29
2023-03-26T04:07:41.508Z,65.18
2023-03-26T04:09:44.308Z,65.17
2023-03-26T04:11:52.325Z,65.63
2023-03-26T04:14:15.334Z,65.67
2023-03-26T04:16:43.975Z,65.99
2023-03-26T04:18:46.718Z,65.69
2023-03-26T04:20:52.286Z,66.34
2023-03-26T04:23:00.484Z,65.77
2023-03-26T04:25:05.169Z,65.40
2023-03-26T04:27:17.019Z,65.76
2023-03-26T04:29:23.967Z,66.00
2023-03-26T04:31:30.371Z,66.02
2023-03-26T04:33:35.939Z,66.30
2023-03-26T04:35:41.694Z,66.72
2023-03-26T04:37:47.683Z,66.44
2023-03-26T04:39:55.391Z,66.77
2023-03-26T04:41:58.959Z,66.15
2023-03-26T04:44:08.893Z,66.73
2023-03-26T04:46:38.044Z,66.48
2023-03-26T04:48:50.995Z,66.30
2023-03-26T04:50:54.109Z,66.54
2023-03-26T04:52:59.927Z,65.99
2023-03-26T04:55:25.630Z,66.46
2023-03-26T04:57:46.098Z,66.32
2023-03-26T05:00:14.776Z,66.57
2023-03-26T05:02:18.830Z,67.04
2023-03-26T05:04:26.662Z,67.06
2023-03-26T05:06:30.310Z,67.66
2023-03-26T05:08:34.711Z,67.74
2023-03-26T05:10:37.627Z,67.38
2023-03-26T05:12:46.435Z,67.73
2023-03-26T05:14:53.618Z,68.04
2023-03-26T05:17:10.645Z,67.33
2023-03-26T05:19:15.079Z,67.42
2023-03-26T05:21:18.047Z,67.37
2023-03-26T05:23:21.020Z,67.86
2023-03-26T05:25:31.431Z,67.55
2023-03-26T05:27:36.132Z,67.23
2023-03-26T05:29:38.868Z,67.61
2023-03-26T05:31:41.682Z,67.38
2023-03-26T05:33:44.568Z,68.04
2023-03-26T05:35:50.581Z,68.19
2023-03-26T05:37:53.490Z,68.17
2023-03-26T05:39:59.794Z,68.32
2023-03-26T05:42:33.254Z,68.58
2023-03-26T05:44:58.907Z,68.52
2023-03-26T05:47:04.509Z,68.55
2023-03-26T05:49:07.633Z,68.71
2023-03-26T05:51:12.366Z,69.26
2023-03-26T05:53:19.186Z,68.94
2023-03-26T05:55:40.757Z,68.94
2023-03-26T05:58:08.189Z,69.18
2023-03-26T06:00:29.528Z,69.48
2023-03-26T06:02:32.930Z,69.41
2023-03-26T06:05:09.814Z,69.93
2023-03-26T06:07:39.021Z,70.54
2023-03-26T06:09:53.876Z,70.96
2023-03-26T06:11:56.892Z,71.03
2023-03-26T06:14:01.643Z,71.21
2023-03-26T06:16:05.268Z,71.19
2023-03-26T06:18:11.009Z,71.71
2023-03-26T06:20:25.533Z,71.73
2023-03-26T06:22:29.472Z,72.07
2023-03-26T06:24:48.546Z,71.74
2023-03-26T06:27:09.832Z,71.40
2023-03-26T06:29:49.048Z,71.96
2023-03-26T06:32:19.758Z,72.21
2023-03-26T06:34:43.479Z,72.62
2023-03-26T06:36:48.638Z,72.65
2023-03-26T06:38:51.692Z,72.61
2023-03-26T06:40:55.050Z,72.56
2023-03-26T06:43:08.606Z,72.92
2023-03-26T06:45:34.514Z,73.10
2023-03-26T06:48:09.770Z,73.43
2023-03-26T06:50:35.623Z,73.48
2023-03-26T06:52:57.823Z,73.13
2023-03-26T06:55:15.772Z,73.45
2023-03-26T06:57:42.644Z,73.95
2023-03-26T07:00:13.437Z,73.24
2023-03-26T07:02:37.272Z,73.12
2023-03-26T07:04:59.379Z,73.23
2023-03-26T07:07:21.722Z,73.42
2023-03-26T07:09:53.809Z,73.40
2023-03-26T07:12:26.977Z,73.38
2023-03-26T07:14:53.007Z,72.68
2023-03-26T07:16:59.088Z,72.83
2023-03-26T07:19:24.777Z,73.05
2023-03-26T07:21:28.224Z,73.22
2023-03-26T07:23:31.584Z,73.84
2023-03-26T07:25:54.978Z,73.39
2023-03-26T07:28:11.503Z,73.87
2023-03-26T07:30:48.019Z,73.63
2023-03-26T07:33:17.029Z,73.61
2023-03-26T07:36:07.906Z,74.03
2023-03-26T07:38:40.890Z,74.08
2023-03-26T07:41:09.712Z,73.61
2023-03-26T07:43:58.056Z,74.42
2023-03-26T07:46:29.684Z,74.20
2023-03-26T07:49:00.001Z,73.47
2023-03-26T07:51:19.953Z,73.59
2023-03-26T07:53:30.152Z,73.69
2023-03-26T07:55:53.630Z,74.21
2023-03-26T07:58:33.469Z,74.50
2023-03-26T08:01:10.044Z,74.50
2023-03-26T08:03:26.788Z,73.79
2023-03-26T08:05:33.556Z,74.83
2023-03-26T08:08:07.403Z,74.58
2023-03-26T08:10:22.504Z,74.97
2023-03-26T08:12:47.287Z,75.52
2023-03-26T08:14:58.271Z,75.26
2023-03-26T08:17:06.732Z,75.87
2023-03-26T08:19:28.576Z,76.07
2023-03-26T08:21:37.988Z,76.47
2023-03-26T08:24:01.528Z,75.37
2023-03-26T08:26:10.049Z,76.50
2023-03-26T08:28:24.123Z,76.30
2023-03-26T08:30:28.237Z,76.60
2023-03-26T08:32:31.591Z,76.84
2023-03-26T08:34:34.480Z,76.45
2023-03-26T08:36:37.286Z,76.58
2023-03-26T08:38:40.052Z,76.80
2023-03-26T08:41:17.032Z,76.25
2023-03-26T08:43:48.965Z,76.36
2023-03-26T08:46:23.214Z,76.51
2023-03-26T08:49:00.461Z,76.86
2023-03-26T08:51:44.800Z,76.71
2023-03-26T08:54:36.152Z,76.45
2023-03-26T08:56:53.087Z,76.57
2023-03-26T08:59:20.056Z,76.38
2023-03-26T09:02:07.850Z,76.39
2023-03-26T09:04:42.739Z,77.18
2023-03-26T09:07:14.252Z,77.13
2023-03-26T09:09:59.125Z,76.60
2023-03-26T09:12:52.678Z,76.14
2023-03-26T09:15:35.043Z,75.20
2023-03-26T09:18:28.618Z,75.06
2023-03-26T09:24:19.708Z,75.63
2023-03-26T09:26:27.886Z,74.87
2023-03-26T09:29:14.485Z,75.25
2023-03-26T09:31:48.211Z,75.33
2023-03-26T09:34:00.500Z,76.17
2023-03-26T09:36:22.340Z,75.21
2023-03-26T09:38:46.074Z,75.02
2023-03-26T09:40:59.709Z,75.91
2023-03-26T09:43:26.541Z,74.99
2023-03-26T09:45:54.498Z,74.77
2023-03-26T09:48:39.791Z,75.21
2023-03-26T09:50:55.185Z,74.73
2023-03-26T09:53:09.333Z,74.92
2023-03-26T09:55:29.919Z,74.55
2023-03-26T09:57:53.821Z,74.18
2023-03-26T10:00:23.996Z,75.03
2023-03-26T10:02:45.925Z,72.62
2023-03-26T10:05:41.462Z,72.64
2023-03-26T10:08:09.347Z,71.78
2023-03-26T10:10:22.678Z,71.55
2023-03-26T10:12:34.709Z,70.42
2023-03-26T10:14:45.241Z,70.74
2023-03-26T10:17:01.385Z,69.35
2023-03-26T10:19:22.135Z,69.31
2023-03-26T10:21:36.018Z,68.05
2023-03-26T10:24:07.905Z,66.85
2023-03-26T10:26:41.689Z,67.50
2023-03-26T10:29:20.260Z,67.88
2023-03-26T10:31:41.367Z,68.95
2023-03-26T10:33:54.992Z,69.12
2023-03-26T10:36:13.275Z,69.37
2023-03-26T10:38:23.365Z,70.00
2023-03-26T10:40:32.146Z,70.04
2023-03-26T10:42:56.466Z,69.72
2023-03-26T10:45:15.033Z,70.05
2023-03-26T10:47:39.115Z,71.41
2023-03-26T10:50:22.650Z,71.32
2023-03-26T10:52:35.662Z,72.33
2023-03-26T10:54:49.514Z,72.48
2023-03-26T10:56:52.714Z,72.63
2023-03-26T10:58:57.343Z,72.83
2023-03-26T11:01:04.694Z,73.77
2023-03-26T11:03:43.982Z,73.61
2023-03-26T11:05:54.006Z,73.64
2023-03-26T11:08:04.719Z,73.15
2023-03-26T11:10:12.272Z,73.22
2023-03-26T11:12:28.465Z,73.52
2023-03-26T11:14:39.723Z,72.60
2023-03-26T11:16:55.337Z,72.69
2023-03-26T11:19:05.532Z,72.19
2023-03-26T11:21:19.056Z,72.21
2023-03-26T11:23:36.458Z,72.06
2023-03-26T11:25:49.397Z,72.12
2023-03-26T11:28:07.073Z,72.42
2023-03-26T11:30:22.270Z,71.47
2023-03-26T11:32:27.115Z,67.41
2023-03-26T11:34:37.939Z,65.39
2023-03-26T11:36:45.096Z,66.51
2023-03-26T11:38:50.316Z,65.73
2023-03-26T11:41:00.344Z,62.41
2023-03-26T11:43:27.068Z,63.24
2023-03-26T11:45:33.873Z,60.55
2023-03-26T11:47:41.654Z,62.44
2023-03-26T11:49:50.067Z,62.20
2023-03-26T11:51:53.345Z,61.81
2023-03-26T11:53:57.654Z,61.57
2023-03-26T11:56:04.067Z,62.46
2023-03-26T11:58:24.237Z,61.81
2023-03-26T12:00:30.212Z,62.39
2023-03-26T12:02:40.313Z,61.05
2023-03-26T12:04:45.642Z,62.27
2023-03-26T12:06:57.650Z,63.15
2023-03-26T12:09:00.738Z,64.41
2023-03-26T12:11:09.284Z,65.22
2023-03-26T12:13:29.478Z,65.04
2023-03-26T12:15:38.811Z,65.88
2023-03-26T12:17:42.240Z,66.17
2023-03-26T12:19:46.618Z,66.55
2023-03-26T12:21:51.098Z,66.00
2023-03-26T12:24:00.231Z,65.60
2023-03-26T12:26:15.041Z,65.98
2023-03-26T12:28:19.792Z,65.24
2023-03-26T12:30:23.591Z,64.85
2023-03-26T12:32:43.387Z,61.93
2023-03-26T12:34:50.586Z,61.04
2023-03-26T12:36:55.993Z,59.12
2023-03-26T12:39:17.115Z,58.79
2023-03-26T12:44:42.183Z,57.87
2023-03-26T12:44:50.058Z,57.24
2023-03-26T12:47:56.512Z,55.75
2023-03-26T12:49:12.496Z,53.79
2023-03-26T12:51:27.676Z,55.15
2023-03-26T12:53:40.954Z,55.02
2023-03-26T12:56:00.249Z,54.07
2023-03-26T12:58:15.431Z,53.40
2023-03-26T13:00:28.826Z,52.51
2023-03-26T13:02:50.752Z,53.04
2023-03-26T13:05:09.603Z,52.53
2023-03-26T13:07:22.310Z,54.38
2023-03-26T13:09:47.728Z,53.76
2023-03-26T13:12:03.714Z,54.63
2023-03-26T13:14:19.524Z,53.27
2023-03-26T13:16:29.784Z,52.94
2023-03-26T13:18:43.514Z,53.07
2023-03-26T13:20:52.595Z,51.04
2023-03-26T13:23:03.225Z,51.11
2023-03-26T13:25:20.594Z,49.79
2023-03-26T13:27:42.877Z,48.19
2023-03-26T13:29:56.487Z,48.63
2023-03-26T13:32:09.264Z,48.35
2023-03-26T13:34:23.074Z,48.88
2023-03-26T13:36:37.641Z,46.87
2023-03-26T13:38:58.545Z,47.67
2023-03-26T13:41:08.273Z,45.77
2023-03-26T13:43:27.881Z,46.52
2023-03-26T13:45:45.446Z,45.65
2023-03-26T13:47:51.886Z,46.43
2023-03-26T13:50:00.507Z,45.81
2023-03-26T13:52:09.941Z,46.02
2023-03-26T13:54:19.646Z,46.89
2023-03-26T13:56:28.740Z,47.20
2023-03-26T13:58:39.436Z,47.17
2023-03-26T14:01:04.746Z,46.26
2023-03-26T14:03:17.405Z,47.31
2023-03-26T14:05:25.843Z,48.17
2023-03-26T14:07:35.409Z,47.86
2023-03-26T14:09:45.587Z,47.92
2023-03-26T14:11:59.364Z,47.91
2023-03-26T14:14:09.876Z,47.12
2023-03-26T14:16:18.545Z,46.94
2023-03-26T14:18:32.252Z,47.30
2023-03-26T14:21:10.821Z,48.24
2023-03-26T14:23:35.266Z,48.16
2023-03-26T14:26:05.634Z,47.74
2023-03-26T14:28:24.255Z,48.09
2023-03-26T14:30:56.472Z,48.07
2023-03-26T14:33:27.433Z,48.25
2023-03-26T14:35:38.509Z,48.26
2023-03-26T14:38:01.473Z,48.01
2023-03-26T14:40:31.922Z,48.91
2023-03-26T14:42:42.549Z,49.65
2023-03-26T14:45:15.523Z,50.84
2023-03-26T14:47:21.553Z,50.71
2023-03-26T14:49:53.686Z,50.85
2023-03-26T14:52:04.625Z,51.83
2023-03-26T14:54:12.065Z,51.81
2023-03-26T14:56:43.319Z,51.47
2023-03-26T14:59:17.877Z,52.52
2023-03-26T15:01:27.312Z,53.18
2023-03-26T15:04:03.991Z,53.79
2023-03-26T15:06:41.119Z,54.51
2023-03-26T15:09:11.622Z,54.75
2023-03-26T15:11:26.003Z,54.62
2023-03-26T15:13:50.065Z,54.03
2023-03-26T15:16:25.590Z,54.34
2023-03-26T15:19:13.940Z,54.99
2023-03-26T15:21:53.385Z,55.93
2023-03-26T15:24:25.497Z,55.96
2023-03-26T15:27:08.310Z,55.65
2023-03-26T15:29:33.968Z,56.20
2023-03-26T15:32:16.109Z,55.53
2023-03-26T15:34:51.551Z,57.00
2023-03-26T15:37:42.343Z,56.80
2023-03-26T15:40:08.250Z,57.57
2023-03-26T15:42:18.554Z,57.10
2023-03-26T15:44:40.979Z,57.40
2023-03-26T15:47:19.176Z,57.37
2023-03-26T15:49:31.556Z,56.75
2023-03-26T15:51:52.165Z,57.40
2023-03-26T15:54:00.966Z,57.36
2023-03-26T15:56:27.375Z,58.58
2023-03-26T15:58:34.614Z,58.33
2023-03-26T16:00:45.254Z,58.66
2023-03-26T16:03:00.104Z,59.24
2023-03-26T16:05:26.475Z,58.83
2023-03-26T16:07:55.251Z,59.84
2023-03-26T16:10:18.191Z,60.28
2023-03-26T16:12:33.982Z,59.84
2023-03-26T16:14:46.768Z,60.58
2023-03-26T16:16:59.545Z,61.63
2023-03-26T16:19:41.126Z,61.84
2023-03-26T16:21:56.193Z,61.62
2023-03-26T16:24:18.792Z,61.68
2023-03-26T16:26:26.451Z,61.34
2023-03-26T16:28:33.494Z,62.33
2023-03-26T16:30:36.930Z,62.22
2023-03-26T16:32:43.026Z,62.39
2023-03-26T16:34:53.938Z,61.74
2023-03-26T16:37:00.452Z,61.58
2023-03-26T16:39:25.256Z,61.35
2023-03-26T16:41:31.247Z,61.11
2023-03-26T16:43:45.082Z,61.48
2023-03-26T16:45:53.697Z,61.54
2023-03-26T16:48:07.785Z,61.88
2023-03-26T16:50:19.883Z,61.72
2023-03-26T16:52:31.232Z,61.95
2023-03-26T16:54:46.010Z,62.00
2023-03-26T16:56:59.567Z,61.65
2023-03-26T16:59:09.352Z,62.02
2023-03-26T17:01:30.207Z,62.13
2023-03-26T17:03:54.505Z,61.51
2023-03-26T17:06:06.340Z,61.60
2023-03-26T17:08:35.974Z,61.56
2023-03-26T17:10:48.253Z,61.29
2023-03-26T17:12:56.544Z,62.05
2023-03-26T17:15:08.451Z,61.70
2023-03-26T17:17:26.114Z,61.75
2023-03-26T17:19:36.550Z,62.38
2023-03-26T17:21:55.503Z,62.58
2023-03-26T17:24:07.219Z,63.10
2023-03-26T17:26:24.666Z,62.05
2023-03-26T17:28:49.405Z,62.56
2023-03-26T17:31:03.188Z,62.31
2023-03-26T17:33:16.352Z,63.09
2023-03-26T17:35:35.837Z,63.33
2023-03-26T17:37:45.564Z,63.54
2023-03-26T17:40:36.544Z,61.94
2023-03-26T17:43:04.865Z,62.27
2023-03-26T17:45:17.611Z,62.53
2023-03-26T17:47:34.212Z,62.26
2023-03-26T17:49:40.591Z,63.06
2023-03-26T17:51:50.386Z,62.73
2023-03-26T17:53:53.345Z,62.51
2023-03-26T17:56:00.994Z,62.90
2023-03-26T17:58:07.124Z,62.04
2023-03-26T18:00:18.221Z,63.04
2023-03-26T18:02:28.634Z,62.07
2023-03-26T18:04:35.690Z,62.52
2023-03-26T18:06:55.471Z,62.49
2023-03-26T18:09:11.394Z,62.82
2023-03-26T18:11:52.581Z,62.35
2023-03-26T18:14:29.699Z,63.16
2023-03-26T18:16:39.633Z,63.01
2023-03-26T18:18:49.506Z,62.92
2023-03-26T18:20:54.579Z,63.53
2023-03-26T18:22:57.573Z,63.06
2023-03-26T18:25:03.075Z,63.32
2023-03-26T18:27:12.276Z,63.16
2023-03-26T18:29:23.708Z,63.65
2023-03-26T18:31:27.885Z,63.53
2023-03-26T18:33:42.817Z,63.62
2023-03-26T18:35:47.295Z,63.93
2023-03-26T18:37:53.324Z,64.00
2023-03-26T18:39:59.329Z,63.37
2023-03-26T18:42:02.297Z,63.13
2023-03-26T18:44:07.273Z,63.75
2023-03-26T18:46:13.259Z,63.47
2023-03-26T18:48:20.451Z,63.54
2023-03-26T18:50:27.751Z,63.46
2023-03-26T18:52:32.992Z,63.80
2023-03-26T18:54:37.122Z,63.70
2023-03-26T18:56:41.880Z,62.64
2023-03-26T18:58:51.986Z,63.22
2023-03-26T19:00:59.688Z,63.31
2023-03-26T19:03:06.902Z,63.36
2023-03-26T19:05:15.120Z,63.72
2023-03-26T19:07:23.293Z,63.66
2023-03-26T19:09:31.945Z,63.42
2023-03-26T19:11:40.216Z,63.93
2023-03-26T19:13:43.102Z,63.97
2023-03-26T19:15:47.364Z,63.99
2023-03-26T19:17:56.542Z,63.52
2023-03-26T19:20:01.673Z,63.33
2023-03-26T19:22:06.952Z,63.82
2023-03-26T19:24:11.867Z,63.03
2023-03-26T19:26:14.841Z,63.36
2023-03-26T19:28:20.949Z,63.82
2023-03-26T19:30:30.097Z,63.87
2023-03-26T19:32:34.433Z,64.32
2023-03-26T19:34:40.434Z,65.34
2023-03-26T19:36:58.010Z,65.66
2023-03-26T19:39:12.567Z,66.67
2023-03-26T19:41:21.975Z,67.37
2023-03-26T19:43:26.278Z,67.64
2023-03-26T19:45:29.823Z,68.00
2023-03-26T19:47:52.023Z,68.56
2023-03-26T19:50:01.202Z,68.86
2023-03-26T19:52:13.565Z,69.04
2023-03-26T19:54:19.122Z,69.39
2023-03-26T19:56:22.814Z,69.84
2023-03-26T19:58:27.164Z,69.95
2023-03-26T20:00:30.579Z,70.90
2023-03-26T20:02:33.471Z,71.08
2023-03-26T20:04:36.365Z,71.59
2023-03-26T20:06:43.698Z,71.61
2023-03-26T20:08:50.523Z,71.71
2023-03-26T20:10:54.696Z,72.03
2023-03-26T20:12:58.337Z,72.01
2023-03-26T20:15:01.914Z,72.01
2023-03-26T20:17:05.693Z,72.37
2023-03-26T20:19:08.766Z,72.37
2023-03-26T20:21:12.828Z,72.32
2023-03-26T20:23:17.542Z,72.33
2023-03-26T20:25:25.633Z,72.08
2023-03-26T20:27:29.954Z,71.97
2023-03-26T20:29:32.881Z,72.15
2023-03-26T20:31:35.739Z,72.58
2023-03-26T20:33:39.550Z,72.62
2023-03-26T20:35:43.061Z,72.74
2023-03-26T20:37:46.059Z,72.49
2023-03-26T20:39:48.888Z,72.86
2023-03-26T20:41:54.608Z,73.19
2023-03-26T20:43:57.654Z,73.49
2023-03-26T20:46:00.662Z,73.82
2023-03-26T20:48:03.621Z,73.85
2023-03-26T20:50:07.531Z,73.83
2023-03-26T20:52:14.092Z,74.02
2023-03-26T20:54:18.893Z,73.87
2023-03-26T20:56:22.136Z,74.52
2023-03-26T20:58:31.402Z,74.51
2023-03-26T21:00:37.062Z,74.34
2023-03-26T21:02:41.969Z,74.23
2023-03-26T21:04:47.253Z,74.14
2023-03-26T21:06:50.834Z,73.50
2023-03-26T21:08:55.046Z,73.79
2023-03-26T21:11:01.968Z,73.32
2023-03-26T21:13:08.500Z,73.58
2023-03-26T21:15:22.825Z,73.54
2023-03-26T21:17:27.091Z,73.83
2023-03-26T21:19:30.455Z,73.91
2023-03-26T21:21:47.466Z,73.87
2023-03-26T21:23:59.248Z,73.96
2023-03-26T21:26:07.649Z,73.86
2023-03-26T21:28:32.229Z,74.42
2023-03-26T21:30:44.388Z,73.99
2023-03-26T21:32:48.048Z,74.26
2023-03-26T21:34:58.160Z,74.32
2023-03-26T21:37:03.001Z,74.41
2023-03-26T21:39:06.485Z,74.07
2023-03-26T21:41:17.141Z,74.26
2023-03-26T21:43:21.405Z,74.30
2023-03-26T21:45:24.833Z,74.12
2023-03-26T21:47:29.563Z,74.13
2023-03-26T21:49:33.098Z,73.76
2023-03-26T21:51:36.652Z,73.70
2023-03-26T21:53:39.972Z,73.18
2023-03-26T21:55:54.590Z,73.18
2023-03-26T21:58:23.019Z,72.91
2023-03-26T22:00:41.125Z,73.56
2023-03-26T22:03:05.239Z,73.73
2023-03-26T22:05:15.319Z,74.17
2023-03-26T22:07:21.626Z,74.40
2023-03-26T22:09:33.883Z,73.78
2023-03-26T22:11:38.890Z,74.03
2023-03-26T22:13:42.145Z,74.07
2023-03-26T22:15:46.087Z,74.24
2023-03-26T22:17:53.634Z,73.77
2023-03-26T22:19:58.198Z,73.90
2023-03-26T22:22:01.570Z,74.45
2023-03-26T22:24:06.908Z,74.28
2023-03-26T22:26:09.735Z,73.43
2023-03-26T22:28:12.906Z,73.21
2023-03-26T22:30:16.425Z,73.63
2023-03-26T22:32:19.220Z,73.75
2023-03-26T22:34:23.007Z,74.03
2023-03-26T22:36:27.330Z,73.86
2023-03-26T22:38:30.633Z,73.74
2023-03-26T22:40:33.366Z,72.85
2023-03-26T22:42:36.532Z,73.05
2023-03-26T22:44:40.073Z,72.50
2023-03-26T22:46:44.013Z,72.96
2023-03-26T22:48:48.265Z,73.42
2023-03-26T22:50:58.364Z,73.33
2023-03-26T22:53:02.511Z,72.95
2023-03-26T22:55:05.842Z,73.57
2023-03-26T22:57:08.781Z,73.52
2023-03-26T22:59:11.682Z,73.73
2023-03-26T23:01:17.546Z,73.31
2023-03-26T23:03:21.848Z,73.83
2023-03-26T23:05:38.671Z,74.51
2023-03-26T23:07:42.259Z,73.76
2023-03-26T23:09:46.439Z,73.86
2023-03-26T23:11:49.359Z,73.47
2023-03-26T23:13:54.752Z,74.63
2023-03-26T23:15:57.873Z,74.45
2023-03-26T23:18:01.912Z,74.05
2023-03-26T23:20:13.529Z,73.67
2023-03-26T23:22:16.659Z,73.35
2023-03-26T23:24:19.707Z,73.17
2023-03-26T23:26:24.189Z,73.30
2023-03-26T23:28:27.515Z,73.08
2023-03-26T23:30:30.407Z,72.46
2023-03-26T23:32:37.635Z,72.38
2023-03-26T23:34:52.328Z,71.15
2023-03-26T23:36:55.542Z,71.50
2023-03-26T23:38:58.854Z,72.00
2023-03-26T23:41:01.622Z,70.74
2023-03-26T23:43:05.791Z,70.76
2023-03-26T23:45:09.329Z,71.70
2023-03-26T23:47:12.122Z,71.50
2023-03-26T23:49:15.212Z,70.77
2023-03-26T23:51:19.795Z,70.32
2023-03-26T23:53:24.693Z,70.70
2023-03-26T23:55:28.258Z,71.28
2023-03-26T23:57:31.808Z,71.16
2023-03-26T23:59:36.093Z,70.34
